sensor_id;sensor_type;location;lat;lon;timestamp;temperature;humidity
45715;DHT22;31430;61.646;24.704;2023-05-07T00:01:01;-3.90;99.90
45715;DHT22;31430;61.646;24.704;2023-05-07T00:03:27;-3.90;99.90
45715;DHT22;31430;61.646;24.704;2023-05-07T00:20:40;-4.30;99.90
45715;DHT22;31430;61.646;24.704;2023-05-07T00:23:06;-4.40;99.90
45715;DHT22;31430;61.646;24.704;2023-05-07T00:25:31;-4.30;99.90
45715;DHT22;31430;61.646;24.704;2023-05-07T00:27:57;-4.30;99.90
45715;DHT22;31430;61.646;24.704;2023-05-07T00:30:28;-4.20;99.90
45715;DHT22;31430;61.646;24.704;2023-05-07T00:32:53;-4.20;99.90
45715;DHT22;31430;61.646;24.704;2023-05-07T00:35:19;-4.20;99.90
45715;DHT22;31430;61.646;24.704;2023-05-07T00:37:45;-4.20;99.90
45715;DHT22;31430;61.646;24.704;2023-05-07T00:40:10;-4.20;99.90
45715;DHT22;31430;61.646;24.704;2023-05-07T00:42:36;-4.30;99.90
45715;DHT22;31430;61.646;24.704;2023-05-07T00:45:03;-4.20;99.90
45715;DHT22;31430;61.646;24.704;2023-05-07T00:47:28;-4.30;99.90
45715;DHT22;31430;61.646;24.704;2023-05-07T00:49:54;-4.30;99.90
45715;DHT22;31430;61.646;24.704;2023-05-07T00:52:20;-4.30;99.90
45715;DHT22;31430;61.646;24.704;2023-05-07T00:54:47;-4.30;99.90
45715;DHT22;31430;61.646;24.704;2023-05-07T00:57:13;-4.30;99.90
45715;DHT22;31430;61.646;24.704;2023-05-07T00:59:40;-4.30;99.90
45715;DHT22;31430;61.646;24.704;2023-05-07T01:02:07;-4.40;99.90
45715;DHT22;31430;61.646;24.704;2023-05-07T01:04:33;-4.40;99.90
45715;DHT22;31430;61.646;24.704;2023-05-07T01:06:58;-4.30;99.90
45715;DHT22;31430;61.646;24.704;2023-05-07T01:09:25;-4.30;99.90
45715;DHT22;31430;61.646;24.704;2023-05-07T01:11:51;-4.40;99.90
45715;DHT22;31430;61.646;24.704;2023-05-07T01:14:18;-4.50;99.90
45715;DHT22;31430;61.646;24.704;2023-05-07T01:16:46;-4.50;99.90
45715;DHT22;31430;61.646;24.704;2023-05-07T01:19:12;-4.50;99.90
45715;DHT22;31430;61.646;24.704;2023-05-07T01:21:45;-4.50;99.90
45715;DHT22;31430;61.646;24.704;2023-05-07T01:24:11;-4.50;99.90
45715;DHT22;31430;61.646;24.704;2023-05-07T01:26:38;-4.60;99.90
45715;DHT22;31430;61.646;24.704;2023-05-07T01:29:03;-4.60;99.90
45715;DHT22;31430;61.646;24.704;2023-05-07T01:31:29;-4.60;99.90
45715;DHT22;31430;61.646;24.704;2023-05-07T01:33:57;-4.60;99.90
45715;DHT22;31430;61.646;24.704;2023-05-07T01:36:25;-4.50;99.90
45715;DHT22;31430;61.646;24.704;2023-05-07T01:38:52;-4.50;99.90
45715;DHT22;31430;61.646;24.704;2023-05-07T01:41:19;-4.60;99.90
45715;DHT22;31430;61.646;24.704;2023-05-07T01:43:46;-4.60;99.90
45715;DHT22;31430;61.646;24.704;2023-05-07T01:46:12;-4.60;99.90
45715;DHT22;31430;61.646;24.704;2023-05-07T01:48:38;-4.60;99.90
45715;DHT22;31430;61.646;24.704;2023-05-07T01:51:05;-4.60;99.90
45715;DHT22;31430;61.646;24.704;2023-05-07T01:53:40;-4.60;99.90
45715;DHT22;31430;61.646;24.704;2023-05-07T01:56:09;-4.60;99.90
45715;DHT22;31430;61.646;24.704;2023-05-07T01:58:35;-4.60;99.90
45715;DHT22;31430;61.646;24.704;2023-05-07T02:01:01;-4.60;99.90
45715;DHT22;31430;61.646;24.704;2023-05-07T02:03:26;-4.60;99.90
45715;DHT22;31430;61.646;24.704;2023-05-07T02:05:52;-4.60;99.90
45715;DHT22;31430;61.646;24.704;2023-05-07T02:08:18;-4.60;99.90
45715;DHT22;31430;61.646;24.704;2023-05-07T02:10:43;-4.60;99.90
45715;DHT22;31430;61.646;24.704;2023-05-07T02:13:09;-4.50;99.90
45715;DHT22;31430;61.646;24.704;2023-05-07T02:15:34;-4.50;99.90
45715;DHT22;31430;61.646;24.704;2023-05-07T02:18:04;-4.40;99.90
45715;DHT22;31430;61.646;24.704;2023-05-07T02:20:30;-4.30;99.90
45715;DHT22;31430;61.646;24.704;2023-05-07T02:22:55;-4.30;99.90
45715;DHT22;31430;61.646;24.704;2023-05-07T02:25:21;-4.20;99.90
45715;DHT22;31430;61.646;24.704;2023-05-07T02:27:47;-4.20;99.90
45715;DHT22;31430;61.646;24.704;2023-05-07T02:30:14;-4.30;99.90
45715;DHT22;31430;61.646;24.704;2023-05-07T02:32:39;-4.20;99.90
45715;DHT22;31430;61.646;24.704;2023-05-07T02:35:05;-4.10;99.90
45715;DHT22;31430;61.646;24.704;2023-05-07T02:37:31;-4.10;99.90
45715;DHT22;31430;61.646;24.704;2023-05-07T02:39:57;-4.00;99.90
45715;DHT22;31430;61.646;24.704;2023-05-07T02:42:22;-3.90;99.90
45715;DHT22;31430;61.646;24.704;2023-05-07T02:44:48;-3.90;99.90
45715;DHT22;31430;61.646;24.704;2023-05-07T02:47:14;-3.80;99.90
45715;DHT22;31430;61.646;24.704;2023-05-07T02:49:43;-3.70;99.90
45715;DHT22;31430;61.646;24.704;2023-05-07T02:52:08;-3.70;99.90
45715;DHT22;31430;61.646;24.704;2023-05-07T02:54:34;-3.70;99.90
45715;DHT22;31430;61.646;24.704;2023-05-07T02:56:59;-3.60;99.90
45715;DHT22;31430;61.646;24.704;2023-05-07T02:59:26;-3.60;99.90
45715;DHT22;31430;61.646;24.704;2023-05-07T03:01:51;-3.50;99.90
45715;DHT22;31430;61.646;24.704;2023-05-07T03:04:17;-3.30;99.90
45715;DHT22;31430;61.646;24.704;2023-05-07T03:06:43;-3.20;99.90
45715;DHT22;31430;61.646;24.704;2023-05-07T03:09:08;-3.00;99.90
45715;DHT22;31430;61.646;24.704;2023-05-07T03:11:34;-2.80;99.90
45715;DHT22;31430;61.646;24.704;2023-05-07T03:14:01;-2.60;99.90
45715;DHT22;31430;61.646;24.704;2023-05-07T03:16:27;-2.50;99.90
45715;DHT22;31430;61.646;24.704;2023-05-07T03:18:52;-2.40;99.90
45715;DHT22;31430;61.646;24.704;2023-05-07T03:21:18;-2.50;99.90
45715;DHT22;31430;61.646;24.704;2023-05-07T03:23:44;-2.60;99.90
45715;DHT22;31430;61.646;24.704;2023-05-07T03:26:10;-2.30;99.90
45715;DHT22;31430;61.646;24.704;2023-05-07T03:28:36;-2.10;99.90
45715;DHT22;31430;61.646;24.704;2023-05-07T03:31:02;-1.90;99.90
45715;DHT22;31430;61.646;24.704;2023-05-07T03:33:27;-1.60;99.90
45715;DHT22;31430;61.646;24.704;2023-05-07T03:35:53;-1.40;99.90
45715;DHT22;31430;61.646;24.704;2023-05-07T03:38:19;-1.20;99.90
45715;DHT22;31430;61.646;24.704;2023-05-07T03:40:44;-1.00;99.90
45715;DHT22;31430;61.646;24.704;2023-05-07T03:43:10;-0.80;99.90
45715;DHT22;31430;61.646;24.704;2023-05-07T03:45:35;-0.70;99.90
45715;DHT22;31430;61.646;24.704;2023-05-07T03:48:01;-0.60;99.90
45715;DHT22;31430;61.646;24.704;2023-05-07T03:50:27;-0.50;99.90
45715;DHT22;31430;61.646;24.704;2023-05-07T03:52:52;-0.40;99.90
45715;DHT22;31430;61.646;24.704;2023-05-07T03:55:18;-0.30;99.90
45715;DHT22;31430;61.646;24.704;2023-05-07T03:57:43;-0.10;99.90
45715;DHT22;31430;61.646;24.704;2023-05-07T04:00:10;0.00;99.90
45715;DHT22;31430;61.646;24.704;2023-05-07T04:02:35;0.00;99.90
45715;DHT22;31430;61.646;24.704;2023-05-07T04:05:01;0.00;99.90
45715;DHT22;31430;61.646;24.704;2023-05-07T04:07:27;0.10;99.90
45715;DHT22;31430;61.646;24.704;2023-05-07T04:09:52;0.20;99.90
45715;DHT22;31430;61.646;24.704;2023-05-07T04:12:18;0.40;99.90
45715;DHT22;31430;61.646;24.704;2023-05-07T04:14:44;0.40;99.90
45715;DHT22;31430;61.646;24.704;2023-05-07T04:17:10;0.60;99.90
45715;DHT22;31430;61.646;24.704;2023-05-07T04:19:36;0.80;99.90
45715;DHT22;31430;61.646;24.704;2023-05-07T04:22:01;0.90;99.90
45715;DHT22;31430;61.646;24.704;2023-05-07T04:24:30;0.80;99.90
45715;DHT22;31430;61.646;24.704;2023-05-07T04:26:56;1.00;99.90
45715;DHT22;31430;61.646;24.704;2023-05-07T04:29:21;1.00;99.90
45715;DHT22;31430;61.646;24.704;2023-05-07T04:31:47;1.20;99.90
45715;DHT22;31430;61.646;24.704;2023-05-07T04:34:13;1.40;99.90
45715;DHT22;31430;61.646;24.704;2023-05-07T04:36:39;1.50;99.90
45715;DHT22;31430;61.646;24.704;2023-05-07T04:39:05;1.60;99.90
45715;DHT22;31430;61.646;24.704;2023-05-07T04:41:31;1.80;99.90
45715;DHT22;31430;61.646;24.704;2023-05-07T04:43:56;2.00;99.90
45715;DHT22;31430;61.646;24.704;2023-05-07T04:46:24;2.00;99.90
45715;DHT22;31430;61.646;24.704;2023-05-07T04:48:51;2.10;99.90
45715;DHT22;31430;61.646;24.704;2023-05-07T04:51:16;2.20;99.90
45715;DHT22;31430;61.646;24.704;2023-05-07T04:53:42;2.50;99.90
45715;DHT22;31430;61.646;24.704;2023-05-07T04:56:08;2.60;93.30
45715;DHT22;31430;61.646;24.704;2023-05-07T04:58:34;2.80;94.00
45715;DHT22;31430;61.646;24.704;2023-05-07T05:00:59;2.90;91.90
45715;DHT22;31430;61.646;24.704;2023-05-07T05:03:25;3.10;91.20
45715;DHT22;31430;61.646;24.704;2023-05-07T05:05:52;3.30;90.90
45715;DHT22;31430;61.646;24.704;2023-05-07T05:08:18;3.30;87.50
45715;DHT22;31430;61.646;24.704;2023-05-07T05:10:44;3.50;88.00
45715;DHT22;31430;61.646;24.704;2023-05-07T05:13:10;3.40;86.60
45715;DHT22;31430;61.646;24.704;2023-05-07T05:15:38;3.60;84.40
45715;DHT22;31430;61.646;24.704;2023-05-07T05:18:04;3.60;85.70
45715;DHT22;31430;61.646;24.704;2023-05-07T05:20:29;3.70;82.70
45715;DHT22;31430;61.646;24.704;2023-05-07T05:22:55;3.60;80.60
45715;DHT22;31430;61.646;24.704;2023-05-07T05:25:21;3.60;81.10
45715;DHT22;31430;61.646;24.704;2023-05-07T05:27:47;3.60;80.80
45715;DHT22;31430;61.646;24.704;2023-05-07T05:30:12;3.70;82.50
45715;DHT22;31430;61.646;24.704;2023-05-07T05:32:38;3.80;79.60
45715;DHT22;31430;61.646;24.704;2023-05-07T05:35:04;3.90;79.80
45715;DHT22;31430;61.646;24.704;2023-05-07T05:37:31;4.10;75.10
45715;DHT22;31430;61.646;24.704;2023-05-07T05:39:56;4.00;78.90
45715;DHT22;31430;61.646;24.704;2023-05-07T05:42:22;4.00;78.70
45715;DHT22;31430;61.646;24.704;2023-05-07T05:44:48;4.00;79.20
45715;DHT22;31430;61.646;24.704;2023-05-07T05:47:14;4.10;78.20
45715;DHT22;31430;61.646;24.704;2023-05-07T05:49:40;4.20;78.00
45715;DHT22;31430;61.646;24.704;2023-05-07T05:52:05;4.30;77.40
45715;DHT22;31430;61.646;24.704;2023-05-07T05:54:31;4.30;76.40
45715;DHT22;31430;61.646;24.704;2023-05-07T05:56:57;4.40;75.80
45715;DHT22;31430;61.646;24.704;2023-05-07T05:59:23;4.50;76.30
45715;DHT22;31430;61.646;24.704;2023-05-07T06:01:48;4.50;73.70
45715;DHT22;31430;61.646;24.704;2023-05-07T06:04:14;4.70;75.50
45715;DHT22;31430;61.646;24.704;2023-05-07T06:06:40;4.80;72.20
45715;DHT22;31430;61.646;24.704;2023-05-07T06:09:06;4.80;70.50
45715;DHT22;31430;61.646;24.704;2023-05-07T06:11:32;4.90;67.70
45715;DHT22;31430;61.646;24.704;2023-05-07T06:13:57;5.10;71.40
45715;DHT22;31430;61.646;24.704;2023-05-07T06:16:24;5.20;68.00
45715;DHT22;31430;61.646;24.704;2023-05-07T06:18:50;5.10;66.70
45715;DHT22;31430;61.646;24.704;2023-05-07T06:21:16;5.20;66.90
45715;DHT22;31430;61.646;24.704;2023-05-07T06:23:42;5.10;67.30
45715;DHT22;31430;61.646;24.704;2023-05-07T06:26:07;5.30;64.90
45715;DHT22;31430;61.646;24.704;2023-05-07T06:28:33;5.30;61.60
45715;DHT22;31430;61.646;24.704;2023-05-07T06:31:15;5.40;61.90
45715;DHT22;31430;61.646;24.704;2023-05-07T06:33:42;5.60;62.60
45715;DHT22;31430;61.646;24.704;2023-05-07T06:36:08;5.50;60.60
45715;DHT22;31430;61.646;24.704;2023-05-07T06:38:34;5.40;58.40
45715;DHT22;31430;61.646;24.704;2023-05-07T06:40:59;5.50;60.80
45715;DHT22;31430;61.646;24.704;2023-05-07T06:43:25;5.40;57.50
45715;DHT22;31430;61.646;24.704;2023-05-07T06:45:51;5.60;59.90
45715;DHT22;31430;61.646;24.704;2023-05-07T06:48:16;5.60;58.20
45715;DHT22;31430;61.646;24.704;2023-05-07T06:50:42;5.70;58.10
45715;DHT22;31430;61.646;24.704;2023-05-07T06:53:08;5.70;58.40
45715;DHT22;31430;61.646;24.704;2023-05-07T06:55:33;5.80;56.20
45715;DHT22;31430;61.646;24.704;2023-05-07T06:57:59;5.80;56.60
45715;DHT22;31430;61.646;24.704;2023-05-07T07:00:27;5.90;59.70
45715;DHT22;31430;61.646;24.704;2023-05-07T07:02:54;6.20;58.10
45715;DHT22;31430;61.646;24.704;2023-05-07T07:05:20;6.20;57.50
45715;DHT22;31430;61.646;24.704;2023-05-07T07:07:46;6.30;57.30
45715;DHT22;31430;61.646;24.704;2023-05-07T07:10:18;6.40;56.20
45715;DHT22;31430;61.646;24.704;2023-05-07T07:12:44;6.40;56.60
45715;DHT22;31430;61.646;24.704;2023-05-07T07:15:10;6.40;57.10
45715;DHT22;31430;61.646;24.704;2023-05-07T07:17:36;6.50;55.50
45715;DHT22;31430;61.646;24.704;2023-05-07T07:20:02;6.60;54.60
45715;DHT22;31430;61.646;24.704;2023-05-07T07:22:28;6.60;55.50
45715;DHT22;31430;61.646;24.704;2023-05-07T07:24:54;6.80;56.00
45715;DHT22;31430;61.646;24.704;2023-05-07T07:27:20;6.90;55.50
45715;DHT22;31430;61.646;24.704;2023-05-07T07:29:45;6.70;56.10
45715;DHT22;31430;61.646;24.704;2023-05-07T07:32:11;6.70;53.10
45715;DHT22;31430;61.646;24.704;2023-05-07T07:34:37;6.60;53.50
45715;DHT22;31430;61.646;24.704;2023-05-07T07:37:02;6.70;54.70
45715;DHT22;31430;61.646;24.704;2023-05-07T07:39:32;6.70;54.70
45715;DHT22;31430;61.646;24.704;2023-05-07T07:41:58;6.80;56.30
45715;DHT22;31430;61.646;24.704;2023-05-07T07:44:23;6.80;54.30
45715;DHT22;31430;61.646;24.704;2023-05-07T07:46:49;7.10;54.60
45715;DHT22;31430;61.646;24.704;2023-05-07T07:49:15;7.30;53.40
45715;DHT22;31430;61.646;24.704;2023-05-07T07:51:41;7.30;50.90
45715;DHT22;31430;61.646;24.704;2023-05-07T07:54:07;7.20;52.60
45715;DHT22;31430;61.646;24.704;2023-05-07T07:56:33;7.30;52.20
45715;DHT22;31430;61.646;24.704;2023-05-07T07:58:59;7.30;48.50
45715;DHT22;31430;61.646;24.704;2023-05-07T08:01:25;7.30;49.80
45715;DHT22;31430;61.646;24.704;2023-05-07T08:03:51;7.40;49.40
45715;DHT22;31430;61.646;24.704;2023-05-07T08:06:17;7.40;48.60
45715;DHT22;31430;61.646;24.704;2023-05-07T08:08:43;7.40;48.50
45715;DHT22;31430;61.646;24.704;2023-05-07T08:11:09;7.50;46.40
45715;DHT22;31430;61.646;24.704;2023-05-07T08:13:35;7.70;47.60
45715;DHT22;31430;61.646;24.704;2023-05-07T08:16:01;7.70;48.90
45715;DHT22;31430;61.646;24.704;2023-05-07T08:18:27;7.80;49.20
45715;DHT22;31430;61.646;24.704;2023-05-07T08:20:54;8.00;47.60
45715;DHT22;31430;61.646;24.704;2023-05-07T08:23:20;7.80;47.50
45715;DHT22;31430;61.646;24.704;2023-05-07T08:25:46;8.10;48.90
45715;DHT22;31430;61.646;24.704;2023-05-07T08:28:12;8.20;50.00
45715;DHT22;31430;61.646;24.704;2023-05-07T08:30:37;8.20;48.60
45715;DHT22;31430;61.646;24.704;2023-05-07T08:33:03;8.20;47.90
45715;DHT22;31430;61.646;24.704;2023-05-07T08:35:29;8.40;48.30
45715;DHT22;31430;61.646;24.704;2023-05-07T08:37:55;8.40;47.70
45715;DHT22;31430;61.646;24.704;2023-05-07T08:40:24;8.00;48.00
45715;DHT22;31430;61.646;24.704;2023-05-07T08:42:52;8.10;48.80
45715;DHT22;31430;61.646;24.704;2023-05-07T08:45:19;8.50;49.00
45715;DHT22;31430;61.646;24.704;2023-05-07T08:47:49;8.80;48.60
45715;DHT22;31430;61.646;24.704;2023-05-07T08:50:16;8.90;49.60
45715;DHT22;31430;61.646;24.704;2023-05-07T08:52:42;8.60;46.90
45715;DHT22;31430;61.646;24.704;2023-05-07T08:55:09;8.70;48.50
45715;DHT22;31430;61.646;24.704;2023-05-07T08:57:35;8.60;45.80
45715;DHT22;31430;61.646;24.704;2023-05-07T09:00:02;8.90;47.20
45715;DHT22;31430;61.646;24.704;2023-05-07T09:02:28;8.80;46.20
45715;DHT22;31430;61.646;24.704;2023-05-07T09:04:54;8.90;46.70
45715;DHT22;31430;61.646;24.704;2023-05-07T09:07:21;8.90;45.50
45715;DHT22;31430;61.646;24.704;2023-05-07T09:09:47;9.10;48.10
45715;DHT22;31430;61.646;24.704;2023-05-07T09:12:13;9.30;47.60
45715;DHT22;31430;61.646;24.704;2023-05-07T09:14:39;9.20;45.90
45715;DHT22;31430;61.646;24.704;2023-05-07T09:17:05;9.40;47.80
45715;DHT22;31430;61.646;24.704;2023-05-07T09:19:30;9.50;50.20
45715;DHT22;31430;61.646;24.704;2023-05-07T09:22:04;9.70;47.10
45715;DHT22;31430;61.646;24.704;2023-05-07T09:24:30;9.60;47.30
45715;DHT22;31430;61.646;24.704;2023-05-07T09:27:01;9.50;47.50
45715;DHT22;31430;61.646;24.704;2023-05-07T09:29:27;9.30;48.80
45715;DHT22;31430;61.646;24.704;2023-05-07T09:32:05;9.60;48.70
45715;DHT22;31430;61.646;24.704;2023-05-07T09:34:30;9.70;49.50
45715;DHT22;31430;61.646;24.704;2023-05-07T09:37:00;9.90;49.00
45715;DHT22;31430;61.646;24.704;2023-05-07T09:39:26;10.00;49.40
45715;DHT22;31430;61.646;24.704;2023-05-07T09:41:52;9.70;52.80
45715;DHT22;31430;61.646;24.704;2023-05-07T09:44:20;9.80;49.30
45715;DHT22;31430;61.646;24.704;2023-05-07T09:46:53;9.80;49.00
45715;DHT22;31430;61.646;24.704;2023-05-07T09:49:23;9.60;50.00
45715;DHT22;31430;61.646;24.704;2023-05-07T09:51:50;9.90;52.40
45715;DHT22;31430;61.646;24.704;2023-05-07T09:54:17;10.20;51.30
45715;DHT22;31430;61.646;24.704;2023-05-07T09:56:44;10.30;52.10
45715;DHT22;31430;61.646;24.704;2023-05-07T09:59:13;10.20;50.00
45715;DHT22;31430;61.646;24.704;2023-05-07T10:01:40;10.50;52.30
45715;DHT22;31430;61.646;24.704;2023-05-07T10:04:06;10.40;51.50
45715;DHT22;31430;61.646;24.704;2023-05-07T10:06:34;10.20;51.00
45715;DHT22;31430;61.646;24.704;2023-05-07T10:09:02;10.40;52.70
45715;DHT22;31430;61.646;24.704;2023-05-07T10:11:28;10.40;50.40
45715;DHT22;31430;61.646;24.704;2023-05-07T10:13:54;10.50;53.10
45715;DHT22;31430;61.646;24.704;2023-05-07T10:16:21;10.50;50.40
45715;DHT22;31430;61.646;24.704;2023-05-07T10:18:47;10.50;51.40
45715;DHT22;31430;61.646;24.704;2023-05-07T10:21:21;10.50;50.80
45715;DHT22;31430;61.646;24.704;2023-05-07T10:24:00;10.40;51.30
45715;DHT22;31430;61.646;24.704;2023-05-07T10:26:30;10.60;52.40
45715;DHT22;31430;61.646;24.704;2023-05-07T10:29:06;10.70;51.40
45715;DHT22;31430;61.646;24.704;2023-05-07T10:34:10;11.10;49.50
45715;DHT22;31430;61.646;24.704;2023-05-07T10:36:36;11.30;51.10
45715;DHT22;31430;61.646;24.704;2023-05-07T10:39:02;11.40;51.90
45715;DHT22;31430;61.646;24.704;2023-05-07T10:41:28;11.10;48.80
45715;DHT22;31430;61.646;24.704;2023-05-07T10:43:54;11.30;51.40
45715;DHT22;31430;61.646;24.704;2023-05-07T10:46:21;11.30;50.20
45715;DHT22;31430;61.646;24.704;2023-05-07T10:51:30;11.30;49.60
45715;DHT22;31430;61.646;24.704;2023-05-07T10:56:41;11.20;51.50
45715;DHT22;31430;61.646;24.704;2023-05-07T11:02:02;11.50;49.40
45715;DHT22;31430;61.646;24.704;2023-05-07T11:04:30;11.50;49.40
45715;DHT22;31430;61.646;24.704;2023-05-07T11:09:54;12.20;50.50
45715;DHT22;31430;61.646;24.704;2023-05-07T11:15:12;12.40;47.20
45715;DHT22;31430;61.646;24.704;2023-05-07T11:17:57;11.80;48.30
45715;DHT22;31430;61.646;24.704;2023-05-07T11:20:52;11.90;51.50
45715;DHT22;31430;61.646;24.704;2023-05-07T11:26:07;12.60;47.40
45715;DHT22;31430;61.646;24.704;2023-05-07T11:28:41;12.40;50.30
45715;DHT22;31430;61.646;24.704;2023-05-07T11:31:07;12.40;49.60
45715;DHT22;31430;61.646;24.704;2023-05-07T11:33:33;12.10;50.70
45715;DHT22;31430;61.646;24.704;2023-05-07T11:35:59;12.60;51.10
45715;DHT22;31430;61.646;24.704;2023-05-07T11:38:25;12.80;49.50
45715;DHT22;31430;61.646;24.704;2023-05-07T11:40:51;12.30;49.60
45715;DHT22;31430;61.646;24.704;2023-05-07T11:43:17;12.30;51.50
45715;DHT22;31430;61.646;24.704;2023-05-07T11:45:45;12.30;50.20
45715;DHT22;31430;61.646;24.704;2023-05-07T11:48:12;12.40;49.50
45715;DHT22;31430;61.646;24.704;2023-05-07T11:50:50;12.50;51.10
45715;DHT22;31430;61.646;24.704;2023-05-07T11:53:18;12.60;50.80
45715;DHT22;31430;61.646;24.704;2023-05-07T11:55:45;12.90;49.30
45715;DHT22;31430;61.646;24.704;2023-05-07T11:58:12;12.70;51.00
45715;DHT22;31430;61.646;24.704;2023-05-07T12:00:49;12.80;49.40
45715;DHT22;31430;61.646;24.704;2023-05-07T12:03:15;13.00;50.00
45715;DHT22;31430;61.646;24.704;2023-05-07T12:05:41;13.60;50.60
45715;DHT22;31430;61.646;24.704;2023-05-07T12:08:07;13.60;47.70
45715;DHT22;31430;61.646;24.704;2023-05-07T12:10:33;13.50;49.50
45715;DHT22;31430;61.646;24.704;2023-05-07T12:12:58;13.40;48.40
45715;DHT22;31430;61.646;24.704;2023-05-07T12:15:24;13.20;47.70
45715;DHT22;31430;61.646;24.704;2023-05-07T12:17:50;13.40;47.10
45715;DHT22;31430;61.646;24.704;2023-05-07T12:20:18;13.10;47.00
45715;DHT22;31430;61.646;24.704;2023-05-07T12:22:44;12.40;49.80
45715;DHT22;31430;61.646;24.704;2023-05-07T12:25:10;12.50;49.10
45715;DHT22;31430;61.646;24.704;2023-05-07T12:27:40;12.40;50.80
45715;DHT22;31430;61.646;24.704;2023-05-07T12:30:06;12.20;48.20
45715;DHT22;31430;61.646;24.704;2023-05-07T12:32:31;12.00;49.20
45715;DHT22;31430;61.646;24.704;2023-05-07T12:35:01;11.80;50.50
45715;DHT22;31430;61.646;24.704;2023-05-07T12:37:27;12.40;52.40
45715;DHT22;31430;61.646;24.704;2023-05-07T12:40:09;11.90;49.80
45715;DHT22;31430;61.646;24.704;2023-05-07T12:42:39;11.50;51.70
45715;DHT22;31430;61.646;24.704;2023-05-07T12:45:12;12.30;52.20
45715;DHT22;31430;61.646;24.704;2023-05-07T12:47:38;12.50;50.20
45715;DHT22;31430;61.646;24.704;2023-05-07T12:50:07;12.20;49.70
45715;DHT22;31430;61.646;24.704;2023-05-07T12:52:33;12.10;50.80
45715;DHT22;31430;61.646;24.704;2023-05-07T12:55:05;12.40;50.90
45715;DHT22;31430;61.646;24.704;2023-05-07T12:57:38;13.00;52.30
45715;DHT22;31430;61.646;24.704;2023-05-07T13:00:04;13.10;49.50
45715;DHT22;31430;61.646;24.704;2023-05-07T13:02:37;13.00;49.00
45715;DHT22;31430;61.646;24.704;2023-05-07T13:05:02;13.20;48.70
45715;DHT22;31430;61.646;24.704;2023-05-07T13:07:28;13.30;49.50
45715;DHT22;31430;61.646;24.704;2023-05-07T13:09:54;13.40;50.00
45715;DHT22;31430;61.646;24.704;2023-05-07T13:12:19;13.40;47.70
45715;DHT22;31430;61.646;24.704;2023-05-07T13:14:45;13.70;51.40
45715;DHT22;31430;61.646;24.704;2023-05-07T13:17:11;13.70;48.10
45715;DHT22;31430;61.646;24.704;2023-05-07T13:19:37;13.50;49.30
45715;DHT22;31430;61.646;24.704;2023-05-07T13:22:05;13.20;50.60
45715;DHT22;31430;61.646;24.704;2023-05-07T13:24:31;13.50;49.80
45715;DHT22;31430;61.646;24.704;2023-05-07T13:26:57;13.60;51.10
45715;DHT22;31430;61.646;24.704;2023-05-07T13:29:22;13.90;48.60
45715;DHT22;31430;61.646;24.704;2023-05-07T13:31:58;13.20;47.80
45715;DHT22;31430;61.646;24.704;2023-05-07T13:34:24;12.70;49.50
45715;DHT22;31430;61.646;24.704;2023-05-07T13:36:49;12.50;50.40
45715;DHT22;31430;61.646;24.704;2023-05-07T13:39:15;12.60;49.60
45715;DHT22;31430;61.646;24.704;2023-05-07T13:41:41;12.60;50.40
45715;DHT22;31430;61.646;24.704;2023-05-07T13:44:07;13.00;49.20
45715;DHT22;31430;61.646;24.704;2023-05-07T13:46:32;13.20;49.60
45715;DHT22;31430;61.646;24.704;2023-05-07T13:48:58;12.80;49.60
45715;DHT22;31430;61.646;24.704;2023-05-07T13:51:24;12.40;51.20
45715;DHT22;31430;61.646;24.704;2023-05-07T13:53:50;12.30;50.20
45715;DHT22;31430;61.646;24.704;2023-05-07T13:56:15;11.90;51.30
45715;DHT22;31430;61.646;24.704;2023-05-07T13:58:41;11.70;51.50
45715;DHT22;31430;61.646;24.704;2023-05-07T14:01:07;11.40;51.70
45715;DHT22;31430;61.646;24.704;2023-05-07T14:03:33;11.40;52.10
45715;DHT22;31430;61.646;24.704;2023-05-07T14:05:59;12.00;52.70
45715;DHT22;31430;61.646;24.704;2023-05-07T14:08:26;12.90;51.10
45715;DHT22;31430;61.646;24.704;2023-05-07T14:10:52;13.30;51.00
45715;DHT22;31430;61.646;24.704;2023-05-07T14:13:18;13.30;50.00
45715;DHT22;31430;61.646;24.704;2023-05-07T14:15:43;13.00;51.30
45715;DHT22;31430;61.646;24.704;2023-05-07T14:18:12;12.70;49.80
45715;DHT22;31430;61.646;24.704;2023-05-07T14:20:38;12.60;50.10
45715;DHT22;31430;61.646;24.704;2023-05-07T14:23:04;12.60;50.10
45715;DHT22;31430;61.646;24.704;2023-05-07T14:25:30;12.40;50.00
45715;DHT22;31430;61.646;24.704;2023-05-07T14:27:55;12.00;50.40
45715;DHT22;31430;61.646;24.704;2023-05-07T14:30:21;11.80;51.60
45715;DHT22;31430;61.646;24.704;2023-05-07T14:32:50;11.70;51.60
45715;DHT22;31430;61.646;24.704;2023-05-07T14:35:16;11.50;52.20
45715;DHT22;31430;61.646;24.704;2023-05-07T14:37:42;11.40;52.20
45715;DHT22;31430;61.646;24.704;2023-05-07T14:40:08;11.50;52.70
45715;DHT22;31430;61.646;24.704;2023-05-07T14:42:34;11.50;52.90
45715;DHT22;31430;61.646;24.704;2023-05-07T14:45:00;11.60;53.00
45715;DHT22;31430;61.646;24.704;2023-05-07T14:47:26;11.60;53.70
45715;DHT22;31430;61.646;24.704;2023-05-07T14:49:51;11.50;53.50
45715;DHT22;31430;61.646;24.704;2023-05-07T14:52:18;11.50;52.30
45715;DHT22;31430;61.646;24.704;2023-05-07T14:54:44;11.40;53.40
45715;DHT22;31430;61.646;24.704;2023-05-07T14:57:10;11.30;53.10
45715;DHT22;31430;61.646;24.704;2023-05-07T14:59:38;11.20;53.00
45715;DHT22;31430;61.646;24.704;2023-05-07T15:02:05;11.00;53.70
45715;DHT22;31430;61.646;24.704;2023-05-07T15:04:33;11.10;54.10
45715;DHT22;31430;61.646;24.704;2023-05-07T15:06:59;11.10;53.70
45715;DHT22;31430;61.646;24.704;2023-05-07T15:09:25;11.10;53.80
45715;DHT22;31430;61.646;24.704;2023-05-07T15:11:51;11.20;53.30
45715;DHT22;31430;61.646;24.704;2023-05-07T15:14:16;11.20;53.00
45715;DHT22;31430;61.646;24.704;2023-05-07T15:16:42;11.40;53.60
45715;DHT22;31430;61.646;24.704;2023-05-07T15:19:08;11.80;53.30
45715;DHT22;31430;61.646;24.704;2023-05-07T15:21:33;12.00;53.00
45715;DHT22;31430;61.646;24.704;2023-05-07T15:24:01;11.80;51.80
45715;DHT22;31430;61.646;24.704;2023-05-07T15:26:27;11.60;52.80
45715;DHT22;31430;61.646;24.704;2023-05-07T15:28:53;11.80;53.00
45715;DHT22;31430;61.646;24.704;2023-05-07T15:31:21;12.10;53.30
45715;DHT22;31430;61.646;24.704;2023-05-07T15:33:46;12.20;51.00
45715;DHT22;31430;61.646;24.704;2023-05-07T15:36:13;12.00;51.00
45715;DHT22;31430;61.646;24.704;2023-05-07T15:38:38;11.70;51.40
45715;DHT22;31430;61.646;24.704;2023-05-07T15:41:04;11.60;52.70
45715;DHT22;31430;61.646;24.704;2023-05-07T15:43:30;11.60;52.60
45715;DHT22;31430;61.646;24.704;2023-05-07T15:45:55;11.70;52.80
45715;DHT22;31430;61.646;24.704;2023-05-07T15:48:21;11.60;52.20
45715;DHT22;31430;61.646;24.704;2023-05-07T15:50:47;11.40;53.10
45715;DHT22;31430;61.646;24.704;2023-05-07T15:53:13;11.40;53.80